Time;durP1;ratioP1;P1;durP2;ratioP2;P2;SDS_P1;SDS_P2;PMS_P1;PMS_P2;Temp;Humidity;BMP_temperature;BMP_pressure;BME280_temperature;BME280_humidity;BME280_pressure;Samples;Min_cycle;Max_cycle;Signal;HPM_P1;HPM_P2
2023/06/05 00:01:04;;;;;;;3.27;2.23;;;11.70;99.90;;;;;;5016970;28;20033;-66
2023/06/05 00:03:30;;;;;;;7.10;3.13;;;11.70;99.90;;;;;;5022734;28;20364;-68
2023/06/05 00:05:56;;;;;;;5.53;2.60;;;11.70;99.90;;;;;;5023860;28;20030;-67
2023/06/05 00:08:22;;;;;;;3.73;2.40;;;11.70;99.90;;;;;;5017880;28;20033;-66
2023/06/05 00:10:48;;;;;;;6.70;3.00;;;11.60;99.90;;;;;;5015861;28;20030;-73
2023/06/05 00:13:14;;;;;;;3.60;2.23;;;11.60;99.90;;;;;;5024251;28;20033;-66
2023/06/05 00:15:39;;;;;;;5.10;2.53;;;11.60;99.90;;;;;;5022253;28;20030;-66
2023/06/05 00:18:05;;;;;;;5.33;3.17;;;11.70;99.90;;;;;;5023662;28;20301;-66
2023/06/05 00:20:31;;;;;;;6.07;3.53;;;11.60;99.90;;;;;;5013940;28;20030;-66
2023/06/05 00:22:57;;;;;;;4.17;1.90;;;11.60;99.90;;;;;;5023591;28;20116;-65
2023/06/05 00:25:24;;;;;;;4.50;2.60;;;11.60;99.90;;;;;;5013694;28;20030;-66
2023/06/05 00:27:50;;;;;;;7.70;2.28;;;11.60;99.90;;;;;;5012727;28;20525;-67
2023/06/05 00:30:15;;;;;;;9.40;3.23;;;11.60;99.90;;;;;;5023735;28;20116;-67
2023/06/05 00:32:42;;;;;;;6.27;2.30;;;11.60;99.90;;;;;;5030081;28;20056;-66
2023/06/05 00:35:08;;;;;;;5.97;2.13;;;11.60;99.90;;;;;;5015879;28;20364;-65
2023/06/05 00:37:34;;;;;;;4.82;1.90;;;11.50;99.90;;;;;;5021135;28;20033;-76
2023/06/05 00:40:01;;;;;;;5.40;2.50;;;11.60;99.90;;;;;;5013979;28;20049;-67
2023/06/05 00:42:26;;;;;;;5.90;2.10;;;11.50;99.90;;;;;;5012343;28;20108;-66
2023/06/05 00:44:53;;;;;;;6.73;2.33;;;11.50;99.90;;;;;;5014170;28;20375;-67
2023/06/05 00:47:19;;;;;;;7.68;2.20;;;11.50;99.90;;;;;;5013595;28;20034;-66
2023/06/05 00:49:45;;;;;;;4.35;2.60;;;11.50;99.90;;;;;;5012343;28;20104;-66
2023/06/05 00:52:11;;;;;;;5.20;2.90;;;11.40;99.90;;;;;;5013409;28;20405;-67
2023/06/05 00:54:38;;;;;;;6.65;2.72;;;11.40;99.90;;;;;;5013965;28;20373;-66
2023/06/05 00:57:06;;;;;;;;;;;11.40;99.90;;;;;;5013760;28;20456;-66
2023/06/05 00:59:34;;;;;;;7.90;2.35;;;11.40;99.90;;;;;;5014285;28;19913;-67
2023/06/05 01:02:02;;;;;;;4.05;2.75;;;11.40;99.90;;;;;;5013463;28;20438;-66
2023/06/05 01:04:28;;;;;;;6.47;2.53;;;11.30;99.90;;;;;;5014405;28;20347;-65
2023/06/05 01:06:57;;;;;;;9.10;2.08;;;11.30;99.90;;;;;;5013799;28;20022;-67
2023/06/05 01:09:24;;;;;;;6.53;2.60;;;11.30;99.90;;;;;;5014214;28;20034;-67
2023/06/05 01:12:14;;;;;;;6.05;2.30;;;11.30;99.90;;;;;;5012907;28;20025;-67
2023/06/05 01:14:45;;;;;;;6.00;2.30;;;11.30;99.90;;;;;;5013424;28;20057;-67
2023/06/05 01:17:12;;;;;;;9.88;2.40;;;11.30;99.90;;;;;;5013249;28;20120;-65
2023/06/05 01:19:39;;;;;;;5.10;2.28;;;11.30;99.90;;;;;;5014469;28;20363;-66
2023/06/05 01:22:05;;;;;;;6.60;2.55;;;11.30;99.90;;;;;;5013274;28;20026;-66
2023/06/05 01:24:32;;;;;;;9.40;2.20;;;11.30;99.90;;;;;;5017063;28;20080;-75
2023/06/05 01:27:16;;;;;;;3.58;2.65;;;11.20;99.90;;;;;;5016682;28;20041;-67
2023/06/05 01:30:03;;;;;;;3.78;2.08;;;11.30;99.90;;;;;;5012866;28;20118;-67
2023/06/05 01:32:55;;;;;;;6.13;2.90;;;11.20;99.90;;;;;;5017749;28;20041;-67
2023/06/05 01:35:27;;;;;;;7.93;2.65;;;11.20;99.90;;;;;;5017212;28;20464;-75
2023/06/05 01:37:55;;;;;;;4.57;2.28;;;11.20;99.90;;;;;;5017751;28;20029;-67
2023/06/05 01:40:23;;;;;;;3.47;2.47;;;11.10;99.90;;;;;;5017261;28;20022;-68
2023/06/05 01:42:51;;;;;;;3.38;2.20;;;11.10;99.90;;;;;;5014987;28;20033;-66
2023/06/05 01:45:18;;;;;;;4.32;2.67;;;11.10;99.90;;;;;;5017995;28;20052;-67
2023/06/05 01:47:45;;;;;;;;;;;11.10;99.90;;;;;;5018284;28;20029;-66
2023/06/05 01:50:14;;;;;;;7.50;2.47;;;11.10;99.90;;;;;;5016276;28;19909;-67
2023/06/05 01:52:41;;;;;;;11.18;3.25;;;11.10;99.90;;;;;;5017601;28;20091;-67
2023/06/05 01:55:16;;;;;;;8.05;3.20;;;11.10;99.90;;;;;;5015641;28;20065;-67
2023/06/05 01:57:42;;;;;;;6.13;3.13;;;11.00;99.90;;;;;;5017556;28;20026;-67
2023/06/05 02:00:12;;;;;;;5.45;2.67;;;11.00;99.90;;;;;;5015123;28;20030;-67
2023/06/05 02:02:41;;;;;;;4.60;2.83;;;11.00;99.90;;;;;;5012158;28;20088;-67
2023/06/05 02:05:08;;;;;;;5.78;2.50;;;11.00;99.90;;;;;;5015498;28;20037;-66
2023/06/05 02:07:39;;;;;;;8.45;2.78;;;10.90;99.90;;;;;;5016608;28;20114;-67
2023/06/05 02:10:09;;;;;;;5.93;3.53;;;11.00;99.90;;;;;;5017137;28;20026;-65
2023/06/05 02:12:37;;;;;;;10.95;3.58;;;10.90;99.90;;;;;;5017081;28;20056;-66
2023/06/05 02:15:04;;;;;;;7.63;2.70;;;10.90;99.90;;;;;;5016350;28;20067;-68
2023/06/05 02:17:29;;;;;;;;;;;10.90;99.90;;;;;;5018154;28;20034;-66
2023/06/05 02:19:55;;;;;;;12.38;3.63;;;10.90;99.90;;;;;;5017655;28;19952;-67
2023/06/05 02:22:23;;;;;;;6.80;2.87;;;10.80;99.90;;;;;;5015874;28;20376;-67
2023/06/05 02:24:51;;;;;;;4.07;2.45;;;10.80;99.90;;;;;;5017375;28;20274;-66
2023/06/05 02:27:17;;;;;;;4.50;2.33;;;10.90;99.90;;;;;;5017383;28;20025;-68
2023/06/05 02:29:43;;;;;;;5.90;3.03;;;10.80;99.90;;;;;;5017976;28;20026;-67
2023/06/05 02:32:10;;;;;;;7.30;2.80;;;10.80;99.90;;;;;;5016821;28;20387;-66
2023/06/05 02:34:36;;;;;;;6.25;3.22;;;10.80;99.90;;;;;;5017071;28;20041;-67
2023/06/05 02:37:02;;;;;;;5.63;3.03;;;10.70;99.90;;;;;;5016419;28;20428;-66
2023/06/05 02:39:30;;;;;;;5.28;3.25;;;10.80;99.90;;;;;;5017092;28;20329;-67
2023/06/05 02:41:56;;;;;;;13.85;3.22;;;10.70;99.90;;;;;;5015798;28;20080;-66
2023/06/05 02:44:22;;;;;;;7.65;2.78;;;10.70;99.90;;;;;;5016377;28;20316;-67
2023/06/05 02:46:48;;;;;;;6.13;2.83;;;10.70;99.90;;;;;;5016344;28;20034;-67
2023/06/05 02:49:14;;;;;;;6.97;3.03;;;10.70;99.90;;;;;;5016383;28;20301;-68
2023/06/05 02:51:40;;;;;;;8.10;3.10;;;10.70;99.90;;;;;;5015804;28;20362;-67
2023/06/05 02:54:07;;;;;;;6.20;2.87;;;10.70;99.90;;;;;;5016446;28;20026;-75
2023/06/05 02:56:33;;;;;;;7.57;3.10;;;10.70;99.90;;;;;;5018194;28;20046;-76
2023/06/05 02:59:02;;;;;;;5.93;3.13;;;10.70;99.90;;;;;;5007305;28;20044;-67
2023/06/05 03:01:34;;;;;;;7.82;3.05;;;10.70;99.90;;;;;;5015289;28;20038;-66
2023/06/05 03:04:02;;;;;;;8.57;2.75;;;10.70;99.90;;;;;;5016249;28;20034;-66
2023/06/05 03:06:33;;;;;;;5.47;2.28;;;10.70;99.90;;;;;;5016517;28;20310;-67
2023/06/05 03:08:59;;;;;;;6.03;2.30;;;10.70;99.90;;;;;;5017249;28;20413;-65
2023/06/05 03:11:26;;;;;;;6.82;2.83;;;10.60;99.90;;;;;;5013350;28;20729;-71
2023/06/05 03:13:53;;;;;;;7.60;2.75;;;10.60;99.90;;;;;;5015605;28;20061;-66
2023/06/05 03:16:19;;;;;;;;;;;10.60;99.90;;;;;;5015128;28;20460;-67
2023/06/05 03:18:45;;;;;;;6.33;2.27;;;10.60;99.90;;;;;;5014626;28;20012;-66
2023/06/05 03:21:12;;;;;;;6.63;3.10;;;10.60;99.90;;;;;;5015504;28;20732;-66
2023/06/05 03:23:37;;;;;;;4.80;2.45;;;10.60;99.90;;;;;;5014972;28;20030;-67
2023/06/05 03:26:03;;;;;;;6.13;2.93;;;10.60;99.90;;;;;;5015368;28;20036;-66
2023/06/05 03:28:33;;;;;;;4.90;2.87;;;10.60;99.90;;;;;;5016162;28;20104;-66
2023/06/05 03:30:59;;;;;;;7.53;2.78;;;10.60;99.90;;;;;;5015140;28;20033;-67
2023/06/05 03:33:25;;;;;;;6.27;2.63;;;10.60;99.90;;;;;;5015301;28;20092;-66
2023/06/05 03:35:52;;;;;;;4.47;2.88;;;10.60;99.90;;;;;;5016100;28;20085;-66
2023/06/05 03:38:18;;;;;;;13.05;3.45;;;10.50;99.90;;;;;;5016273;28;20033;-67
2023/06/05 03:40:44;;;;;;;5.97;2.90;;;10.50;99.90;;;;;;5013852;28;20041;-66
2023/06/05 03:43:09;;;;;;;4.00;2.20;;;10.50;99.90;;;;;;5015012;28;20048;-66
2023/06/05 03:45:38;;;;;;;6.37;3.37;;;10.50;99.90;;;;;;5015069;28;20056;-75
2023/06/05 03:48:04;;;;;;;6.90;3.45;;;10.50;99.90;;;;;;5013860;28;20085;-74
2023/06/05 03:50:31;;;;;;;8.97;3.40;;;10.60;99.90;;;;;;5012531;28;20025;-66
2023/06/05 03:53:02;;;;;;;5.07;2.80;;;10.60;99.90;;;;;;5014126;28;20044;-66
2023/06/05 03:55:52;;;;;;;6.53;3.42;;;10.60;99.90;;;;;;5014702;28;20091;-67
2023/06/05 03:58:19;;;;;;;6.13;3.28;;;10.60;99.90;;;;;;5012226;28;20064;-66
2023/06/05 04:00:46;;;;;;;5.20;3.13;;;10.60;99.90;;;;;;5014717;28;20029;-66
2023/06/05 04:03:12;;;;;;;12.73;4.43;;;10.60;99.90;;;;;;5013422;28;20037;-66
2023/06/05 04:05:42;;;;;;;9.02;3.42;;;10.60;99.90;;;;;;5014695;28;20145;-66
2023/06/05 04:08:09;;;;;;;8.27;3.03;;;10.70;99.90;;;;;;5015091;28;20034;-67
2023/06/05 04:10:35;;;;;;;7.82;3.63;;;10.60;99.90;;;;;;5015161;28;20487;-65
2023/06/05 04:13:01;;;;;;;12.50;3.83;;;10.70;99.90;;;;;;5014718;28;20037;-68
2023/06/05 04:15:27;;;;;;;9.30;3.58;;;10.70;99.90;;;;;;5015161;28;20038;-71
2023/06/05 04:17:53;;;;;;;8.13;3.03;;;10.70;99.90;;;;;;5015530;28;20030;-67
2023/06/05 04:20:19;;;;;;;5.60;3.13;;;10.70;99.90;;;;;;5014385;28;20352;-67
2023/06/05 04:22:45;;;;;;;9.25;3.03;;;10.70;99.90;;;;;;5015192;28;20044;-67
2023/06/05 04:25:15;;;;;;;6.05;3.00;;;10.80;99.90;;;;;;5014334;28;20033;-66
2023/06/05 04:27:45;;;;;;;5.45;2.58;;;10.90;99.90;;;;;;5015250;28;20088;-65
2023/06/05 04:30:12;;;;;;;2.78;1.70;;;10.90;99.90;;;;;;5014885;28;20117;-66
2023/06/05 04:32:39;;;;;;;9.10;2.75;;;11.00;99.90;;;;;;5014964;28;20041;-67
2023/06/05 04:35:06;;;;;;;;;;;11.10;99.90;;;;;;5018241;28;20352;-66
2023/06/05 04:37:32;;;;;;;3.20;2.08;;;11.10;99.90;;;;;;5024528;28;20025;-66
2023/06/05 04:39:58;;;;;;;11.70;2.88;;;11.10;99.90;;;;;;5014027;28;20021;-66
2023/06/05 04:42:25;;;;;;;6.90;3.50;;;11.20;99.90;;;;;;5019559;28;20032;-67
2023/06/05 04:45:02;;;;;;;;;;;11.20;99.90;;;;;;5022381;28;20022;-66
2023/06/05 04:47:28;;;;;;;;;;;11.30;99.90;;;;;;5019644;28;19916;-72
2023/06/05 04:49:54;;;;;;;3.33;1.85;;;11.30;99.90;;;;;;5020269;28;19909;-67
2023/06/05 04:52:21;;;;;;;6.63;3.25;;;11.30;99.90;;;;;;5018675;28;20084;-66
2023/06/05 04:54:47;;;;;;;6.10;2.80;;;11.40;99.90;;;;;;5018387;28;20301;-66
2023/06/05 04:57:13;;;;;;;8.90;3.05;;;11.40;99.90;;;;;;5016000;28;20050;-66
2023/06/05 04:59:40;;;;;;;6.30;3.30;;;11.40;99.90;;;;;;5021091;28;20030;-67
2023/06/05 05:02:05;;;;;;;7.25;2.13;;;11.40;99.90;;;;;;5019531;28;20341;-66
2023/06/05 05:04:32;;;;;;;6.73;3.17;;;11.40;99.90;;;;;;5019889;28;20380;-66
2023/06/05 05:07:03;;;;;;;8.15;3.90;;;11.40;99.90;;;;;;5017961;28;20060;-67
2023/06/05 05:09:31;;;;;;;6.93;3.85;;;11.40;99.90;;;;;;5017702;28;20033;-66
2023/06/05 05:11:57;;;;;;;9.02;4.05;;;11.40;99.90;;;;;;5016234;28;20429;-66
2023/06/05 05:14:26;;;;;;;7.18;3.80;;;11.50;99.90;;;;;;5014602;28;20321;-68
2023/06/05 05:16:52;;;;;;;11.02;4.07;;;11.50;99.90;;;;;;5023411;28;20132;-68
2023/06/05 05:19:18;;;;;;;6.20;3.23;;;11.60;99.90;;;;;;5016913;28;20101;-66
2023/06/05 05:21:46;;;;;;;8.10;3.23;;;11.70;99.90;;;;;;5021602;28;20455;-76
2023/06/05 05:24:12;;;;;;;8.88;3.95;;;11.70;99.90;;;;;;5016622;28;20069;-67
2023/06/05 05:26:39;;;;;;;10.57;3.77;;;11.70;99.90;;;;;;5018885;28;20049;-67
2023/06/05 05:29:06;;;;;;;7.20;4.30;;;11.70;99.90;;;;;;5018090;28;20270;-67
2023/06/05 05:31:32;;;;;;;7.53;4.20;;;11.70;99.90;;;;;;5012959;28;20026;-68
2023/06/05 05:33:58;;;;;;;10.07;3.53;;;11.80;99.90;;;;;;5038834;28;20022;-66
2023/06/05 05:36:26;;;;;;;5.97;3.03;;;11.90;99.90;;;;;;5018795;28;20266;-67
2023/06/05 05:38:52;;;;;;;6.22;3.22;;;11.90;99.90;;;;;;5016055;28;20029;-68
2023/06/05 05:41:18;;;;;;;5.97;3.08;;;12.00;99.90;;;;;;5014934;28;20025;-67
2023/06/05 05:43:44;;;;;;;9.17;3.43;;;12.00;99.90;;;;;;5033318;28;20409;-67
2023/06/05 05:46:10;;;;;;;8.67;3.40;;;12.00;99.90;;;;;;5023020;28;20119;-67
2023/06/05 05:48:37;;;;;;;7.32;3.55;;;12.10;99.90;;;;;;5016174;28;20023;-66
2023/06/05 05:51:09;;;;;;;9.63;3.55;;;12.10;99.90;;;;;;5015811;28;20034;-68
2023/06/05 05:53:36;;;;;;;8.43;2.72;;;12.10;99.90;;;;;;5017036;28;20037;-66
2023/06/05 05:56:03;;;;;;;5.90;3.40;;;12.10;99.90;;;;;;5015629;28;20068;-68
2023/06/05 05:58:29;;;;;;;8.10;3.47;;;12.10;99.90;;;;;;5013620;28;20658;-67
2023/06/05 06:00:55;;;;;;;6.35;2.60;;;12.10;99.90;;;;;;5018929;28;20022;-66
2023/06/05 06:03:23;;;;;;;10.87;2.40;;;12.10;99.90;;;;;;5018762;28;20325;-77
2023/06/05 06:05:49;;;;;;;4.50;2.75;;;12.20;99.90;;;;;;5017936;28;20255;-66
2023/06/05 06:08:16;;;;;;;6.45;2.83;;;12.30;99.90;;;;;;5021176;28;20362;-65
2023/06/05 06:10:42;;;;;;;7.28;3.03;;;12.40;99.90;;;;;;5014894;28;20063;-66
2023/06/05 06:13:08;;;;;;;4.60;2.00;;;12.40;99.90;;;;;;5019152;28;20018;-66
2023/06/05 06:15:34;;;;;;;6.30;2.27;;;12.40;99.90;;;;;;5020436;28;20057;-67
2023/06/05 06:18:02;;;;;;;4.93;3.17;;;12.40;99.90;;;;;;5022058;28;20113;-66
2023/06/05 06:20:28;;;;;;;8.48;2.78;;;12.50;99.90;;;;;;5024347;28;20021;-66
2023/06/05 06:22:54;;;;;;;4.68;2.53;;;12.60;99.90;;;;;;5017315;28;20021;-65
2023/06/05 06:25:21;;;;;;;5.38;2.53;;;12.60;99.90;;;;;;5023401;28;20025;-67
2023/06/05 06:27:48;;;;;;;5.00;2.77;;;12.70;99.90;;;;;;5018241;28;20053;-67
2023/06/05 06:30:14;;;;;;;7.10;2.20;;;12.70;99.90;;;;;;5023680;28;20258;-67
2023/06/05 06:32:40;;;;;;;3.72;1.75;;;12.80;99.90;;;;;;5017774;28;20025;-65
2023/06/05 06:35:07;;;;;;;3.23;1.77;;;12.80;99.90;;;;;;5022767;28;20069;-67
2023/06/05 06:37:33;;;;;;;;;;;12.80;99.90;;;;;;5023011;28;20037;-75
2023/06/05 06:39:59;;;;;;;4.63;2.45;;;12.90;99.90;;;;;;5016211;28;20339;-67
2023/06/05 06:42:26;;;;;;;6.00;2.17;;;13.00;99.90;;;;;;5018593;28;20069;-66
2023/06/05 06:44:55;;;;;;;2.35;1.95;;;13.00;99.90;;;;;;5021098;28;20026;-67
2023/06/05 06:47:25;;;;;;;5.63;2.17;;;13.10;99.90;;;;;;5019062;28;20014;-66
2023/06/05 06:49:51;;;;;;;4.65;1.45;;;13.20;99.90;;;;;;5024171;28;20428;-66
2023/06/05 06:52:19;;;;;;;4.00;2.28;;;13.20;99.90;;;;;;5019943;28;20105;-67
2023/06/05 06:54:49;;;;;;;6.43;1.73;;;13.10;99.90;;;;;;5021979;28;20083;-66
2023/06/05 06:57:15;;;;;;;3.75;2.20;;;13.20;99.90;;;;;;5018319;28;20377;-67
2023/06/05 06:59:40;;;;;;;3.93;2.00;;;13.30;99.90;;;;;;5021302;28;20025;-67
2023/06/05 07:02:10;;;;;;;6.63;2.00;;;13.20;99.90;;;;;;5020500;28;20187;-78
2023/06/05 07:04:36;;;;;;;3.70;1.75;;;13.20;99.90;;;;;;5022646;28;20301;-67
2023/06/05 07:07:03;;;;;;;5.18;1.42;;;13.20;99.90;;;;;;5022136;28;20030;-67
2023/06/05 07:09:29;;;;;;;2.45;1.50;;;13.20;99.90;;;;;;5019938;28;20122;-74
2023/06/05 07:11:55;;;;;;;4.97;2.20;;;13.60;99.90;;;;;;5024149;28;20328;-67
2023/06/05 07:14:22;;;;;;;3.50;1.63;;;13.60;99.90;;;;;;5029228;28;20026;-67
2023/06/05 07:16:48;;;;;;;;;;;13.70;99.90;;;;;;5031515;28;20110;-67
2023/06/05 07:19:15;;;;;;;4.65;1.77;;;13.70;99.90;;;;;;5032133;28;19963;-68
2023/06/05 07:21:41;;;;;;;3.53;1.60;;;13.80;99.90;;;;;;5025059;28;20030;-67
2023/06/05 07:24:08;;;;;;;2.50;1.43;;;14.00;99.90;;;;;;5022959;28;20324;-66
2023/06/05 07:26:34;;;;;;;4.53;1.63;;;13.90;99.90;;;;;;5029263;28;20262;-67
2023/06/05 07:29:00;;;;;;;3.38;1.98;;;13.80;99.90;;;;;;5032030;28;20018;-66
2023/06/05 07:31:26;;;;;;;11.93;2.80;;;13.80;99.90;;;;;;5024921;28;20037;-65
2023/06/05 07:33:52;;;;;;;3.57;1.90;;;13.90;99.90;;;;;;5029857;28;20024;-66
2023/06/05 07:36:18;;;;;;;9.30;2.30;;;13.90;99.90;;;;;;5028402;28;20030;-67
2023/06/05 07:38:45;;;;;;;2.87;2.17;;;14.00;99.90;;;;;;5027890;28;20028;-67
2023/06/05 07:41:10;;;;;;;;;;;14.00;99.90;;;;;;5022718;28;20720;-66
2023/06/05 07:43:39;;;;;;;3.17;2.05;;;14.00;99.90;;;;;;5029429;28;19944;-64
2023/06/05 07:46:05;;;;;;;3.88;2.38;;;14.10;99.90;;;;;;5021682;28;20026;-67
2023/06/05 07:48:31;;;;;;;2.83;1.83;;;14.10;99.90;;;;;;5015545;28;20030;-78
2023/06/05 07:50:57;;;;;;;5.37;2.37;;;14.10;99.90;;;;;;5016180;28;20061;-67
2023/06/05 07:53:23;;;;;;;3.87;2.07;;;14.10;99.90;;;;;;5024312;28;20033;-76
2023/06/05 07:55:50;;;;;;;5.43;2.37;;;14.20;99.90;;;;;;5024644;28;20053;-67
2023/06/05 07:58:18;;;;;;;5.63;1.92;;;14.20;99.90;;;;;;5028985;28;20045;-69
2023/06/05 08:00:47;;;;;;;4.93;2.40;;;14.20;99.90;;;;;;5014797;28;20029;-67
2023/06/05 08:03:19;;;;;;;4.90;1.48;;;14.20;99.90;;;;;;5016374;28;20032;-68
2023/06/05 08:05:49;;;;;;;2.65;1.63;;;14.20;99.90;;;;;;5021599;28;20053;-66
2023/06/05 08:08:16;;;;;;;3.75;2.17;;;14.30;99.90;;;;;;5015925;28;20049;-71
2023/06/05 08:10:42;;;;;;;5.50;2.10;;;14.30;99.90;;;;;;5018565;28;20021;-67
2023/06/05 08:13:09;;;;;;;3.77;2.17;;;14.40;99.90;;;;;;5016197;28;20057;-72
2023/06/05 08:15:35;;;;;;;2.75;1.80;;;14.50;99.90;;;;;;5016979;28;20041;-78
2023/06/05 08:18:01;;;;;;;4.45;1.77;;;14.50;99.90;;;;;;5010014;28;20018;-77
2023/06/05 08:20:27;;;;;;;3.57;1.90;;;14.50;99.90;;;;;;5022029;28;20040;-68
2023/06/05 08:22:57;;;;;;;4.90;2.60;;;14.60;99.90;;;;;;5015103;28;20049;-80
2023/06/05 08:25:26;;;;;;;4.97;1.50;;;14.60;99.90;;;;;;5015097;28;20064;-76
2023/06/05 08:27:53;;;;;;;3.85;2.17;;;14.70;99.90;;;;;;5014370;28;20030;-77
2023/06/05 08:30:19;;;;;;;4.93;2.75;;;14.70;99.90;;;;;;5014799;28;20444;-68
2023/06/05 08:32:45;;;;;;;6.28;3.03;;;14.70;99.90;;;;;;5020179;28;20333;-76
2023/06/05 08:35:12;;;;;;;3.50;2.38;;;14.70;99.90;;;;;;5024032;28;20030;-65
2023/06/05 08:37:38;;;;;;;3.70;2.00;;;14.90;99.90;;;;;;5021153;28;20379;-68
2023/06/05 08:40:10;;;;;;;5.45;2.42;;;14.90;99.90;;;;;;5003050;28;20029;-78
2023/06/05 08:42:37;;;;;;;5.13;2.40;;;14.80;99.90;;;;;;5014710;28;20029;-72
2023/06/05 08:45:12;;;;;;;2.92;2.10;;;14.80;99.90;;;;;;5014141;28;20030;-68
2023/06/05 08:47:41;;;;;;;3.97;2.10;;;15.10;99.90;;;;;;5017237;28;20026;-67
2023/06/05 08:50:08;;;;;;;7.45;2.30;;;15.10;99.90;;;;;;5016275;28;20024;-66
2023/06/05 08:52:35;;;;;;;;;;;14.80;99.90;;;;;;5020612;28;20072;-68
2023/06/05 08:55:05;;;;;;;5.80;2.97;;;14.80;99.90;;;;;;5018810;28;19916;-67
2023/06/05 08:57:37;;;;;;;3.28;1.88;;;14.80;99.90;;;;;;5017629;28;20433;-68
2023/06/05 09:00:14;;;;;;;5.07;1.88;;;14.70;99.90;;;;;;5013280;28;20029;-67
2023/06/05 09:02:46;;;;;;;3.80;2.47;;;14.60;99.90;;;;;;5015348;28;20022;-67
2023/06/05 09:05:16;;;;;;;3.38;1.75;;;14.40;99.90;;;;;;5015097;28;20041;-66
2023/06/05 09:07:42;;;;;;;5.80;2.08;;;14.40;99.90;;;;;;5018228;28;20033;-67
2023/06/05 09:10:26;;;;;;;2.75;1.48;;;14.40;99.90;;;;;;5014396;28;20025;-67
2023/06/05 09:12:53;;;;;;;9.48;2.67;;;14.30;99.90;;;;;;5014555;28;20029;-66
2023/06/05 09:15:33;;;;;;;3.45;1.95;;;14.50;99.90;;;;;;5020771;28;20026;-67
2023/06/05 09:18:15;;;;;;;6.43;2.53;;;14.60;99.90;;;;;;5020221;28;20026;-67
2023/06/05 09:20:45;;;;;;;3.60;1.73;;;14.70;99.90;;;;;;5016409;28;20064;-66
2023/06/05 09:23:29;;;;;;;2.30;1.35;;;14.70;99.90;;;;;;5011681;28;20080;-67
2023/06/05 09:26:00;;;;;;;4.22;2.25;;;14.70;99.90;;;;;;5015447;28;20022;-68
2023/06/05 09:28:26;;;;;;;4.97;2.72;;;14.70;99.90;;;;;;5011295;28;20109;-67
2023/06/05 09:30:59;;;;;;;3.17;1.80;;;14.60;99.90;;;;;;5023847;28;20057;-68
2023/06/05 09:33:27;;;;;;;3.55;1.50;;;14.70;99.90;;;;;;5026223;28;20048;-66
2023/06/05 09:36:07;;;;;;;3.03;1.80;;;14.80;99.90;;;;;;5019016;28;20655;-67
2023/06/05 09:38:34;;;;;;;0.93;0.88;;;14.70;99.90;;;;;;5021486;28;20698;-67
2023/06/05 09:41:11;;;;;;;6.40;2.25;;;14.80;99.90;;;;;;5027142;28;20312;-66
2023/06/05 09:43:38;;;;;;;5.68;2.17;;;14.80;99.90;;;;;;5030436;28;20036;-67
2023/06/05 09:46:07;;;;;;;4.18;2.13;;;14.80;99.90;;;;;;5025322;28;20026;-68
2023/06/05 09:48:33;;;;;;;2.25;1.65;;;15.00;99.90;;;;;;5018752;28;20048;-67
2023/06/05 09:51:18;;;;;;;2.70;1.87;;;15.00;99.90;;;;;;5021002;28;20289;-67
2023/06/05 09:53:44;;;;;;;2.65;1.27;;;15.00;99.90;;;;;;5029067;28;20040;-66
2023/06/05 09:56:15;;;;;;;4.80;2.63;;;14.90;99.90;;;;;;5028238;28;20084;-66
2023/06/05 09:58:45;;;;;;;2.40;1.67;;;15.00;99.90;;;;;;5031350;28;20091;-65
2023/06/05 10:01:14;;;;;;;3.65;1.70;;;15.00;99.90;;;;;;5023496;28;20037;-67
2023/06/05 10:03:42;;;;;;;1.13;0.90;;;15.00;99.90;;;;;;5029832;28;20036;-66
2023/06/05 10:06:08;;;;;;;5.60;1.67;;;15.00;99.90;;;;;;5030252;28;20018;-67
2023/06/05 10:08:35;;;;;;;3.95;1.70;;;14.80;99.90;;;;;;5031672;28;20026;-67
2023/06/05 10:11:01;;;;;;;3.20;1.63;;;14.90;99.90;;;;;;5028156;28;20080;-66
2023/06/05 10:13:29;;;;;;;2.13;1.40;;;15.20;99.90;;;;;;5025537;28;20032;-68
2023/06/05 10:15:56;;;;;;;4.05;2.42;;;15.00;99.90;;;;;;5022643;28;20193;-68
2023/06/05 10:18:22;;;;;;;3.30;1.65;;;15.00;99.90;;;;;;5021244;28;20025;-68
2023/06/05 10:20:48;;;;;;;2.35;1.42;;;15.00;99.90;;;;;;5022399;28;20026;-66
2023/06/05 10:23:19;;;;;;;2.47;1.57;;;15.00;99.90;;;;;;5023539;28;20036;-66
2023/06/05 10:25:47;;;;;;;3.10;2.00;;;15.10;99.90;;;;;;5020621;28;20097;-68
2023/06/05 10:28:24;;;;;;;4.20;1.83;;;15.10;99.90;;;;;;5020040;28;20022;-67
2023/06/05 10:31:42;;;;;;;6.75;1.90;;;15.10;99.90;;;;;;5024753;28;20344;-65
2023/06/05 10:34:28;;;;;;;2.85;1.23;;;15.00;99.90;;;;;;4994798;28;20038;-66
2023/06/05 10:36:59;;;;;;;2.93;1.80;;;14.90;99.90;;;;;;4995583;28;20130;-67
2023/06/05 10:39:28;;;;;;;1.25;1.02;;;15.10;99.90;;;;;;4987621;28;20279;-66
2023/06/05 10:41:54;;;;;;;3.92;1.83;;;15.20;99.90;;;;;;4995010;28;20113;-67
2023/06/05 10:44:39;;;;;;;4.85;2.03;;;15.10;99.90;;;;;;4994899;28;20400;-67
2023/06/05 10:47:37;;;;;;;3.60;1.90;;;15.20;99.90;;;;;;4995362;28;20021;-67
2023/06/05 10:50:21;;;;;;;2.60;1.85;;;15.40;99.90;;;;;;4994139;28;20050;-67
2023/06/05 10:52:50;;;;;;;4.97;2.17;;;15.20;99.90;;;;;;4992693;28;20100;-67
2023/06/05 10:55:17;;;;;;;5.18;1.38;;;15.30;99.90;;;;;;4999454;28;20447;-67
2023/06/05 10:58:00;;;;;;;;;;;15.30;99.90;;;;;;5005417;28;20030;-67
2023/06/05 11:00:27;;;;;;;4.13;2.05;;;15.30;99.90;;;;;;4993358;28;20443;-68
2023/06/05 11:02:53;;;;;;;4.28;1.98;;;15.30;99.90;;;;;;4990673;28;20042;-65
2023/06/05 11:05:20;;;;;;;3.70;1.75;;;15.60;99.90;;;;;;4987484;28;20034;-67
2023/06/05 11:07:46;;;;;;;5.05;2.20;;;15.60;99.90;;;;;;4989122;28;20112;-67
2023/06/05 11:10:22;;;;;;;7.53;2.05;;;15.50;99.90;;;;;;5014754;28;20041;-67
2023/06/05 11:12:51;;;;;;;8.05;2.40;;;15.40;99.90;;;;;;5015602;28;20036;-69
2023/06/05 11:15:39;;;;;;;4.22;2.40;;;15.50;99.90;;;;;;5015019;28;20034;-67
2023/06/05 11:18:28;;;;;;;3.03;1.77;;;15.60;99.90;;;;;;5017703;28;20025;-68
2023/06/05 11:20:54;;;;;;;4.38;2.28;;;15.70;99.90;;;;;;5015453;28;20039;-67
2023/06/05 11:23:21;;;;;;;4.63;2.17;;;15.80;99.90;;;;;;5019764;28;20022;-67
2023/06/05 11:25:48;;;;;;;3.47;2.10;;;15.90;99.90;;;;;;5016451;28;20114;-79
2023/06/05 11:28:17;;;;;;;2.40;1.67;;;15.80;99.90;;;;;;5014892;28;20029;-76
2023/06/05 11:30:45;;;;;;;4.82;2.33;;;15.80;99.90;;;;;;5014449;28;20018;-68
2023/06/05 11:33:20;;;;;;;4.72;2.67;;;15.80;99.90;;;;;;5018320;28;20037;-79
2023/06/05 11:35:48;;;;;;;3.42;2.05;;;16.00;99.90;;;;;;5020007;28;20053;-77
2023/06/05 11:38:22;;;;;;;3.78;2.03;;;16.00;99.90;;;;;;5021992;28;20033;-68
2023/06/05 11:40:48;;;;;;;3.75;2.60;;;15.90;99.90;;;;;;5018472;28;20361;-69
2023/06/05 11:43:17;;;;;;;1.67;1.53;;;15.90;99.90;;;;;;5018396;28;20018;-66
2023/06/05 11:45:53;;;;;;;4.45;2.63;;;16.10;99.90;;;;;;5016364;28;20638;-68
2023/06/05 11:48:19;;;;;;;4.00;2.00;;;16.20;99.90;;;;;;5016625;28;20739;-69
2023/06/05 11:51:00;;;;;;;3.28;1.92;;;16.30;99.90;;;;;;5016223;28;20014;-68
2023/06/05 11:53:27;;;;;;;5.03;2.10;;;16.10;99.90;;;;;;5016286;28;20030;-66
2023/06/05 11:56:05;;;;;;;4.82;2.38;;;16.00;99.90;;;;;;5018071;28;20041;-67
2023/06/05 11:58:37;;;;;;;4.72;2.05;;;15.90;99.90;;;;;;5022250;28;20282;-67
2023/06/05 12:01:17;;;;;;;6.60;2.17;;;15.80;99.90;;;;;;5014907;28;20075;-68
2023/06/05 12:03:46;;;;;;;6.38;2.40;;;15.80;99.90;;;;;;5016904;28;20021;-67
2023/06/05 12:06:15;;;;;;;4.50;2.25;;;15.80;99.90;;;;;;5021280;28;20042;-76
2023/06/05 12:08:43;;;;;;;5.10;2.63;;;16.10;99.90;;;;;;5022244;28;20431;-66
2023/06/05 12:11:26;;;;;;;1.60;0.65;;;16.00;99.90;;;;;;5020477;28;20440;-66
2023/06/05 12:13:53;;;;;;;4.93;2.67;;;16.00;99.90;;;;;;5018180;28;20145;-79
2023/06/05 12:16:20;;;;;;;4.80;2.10;;;16.00;99.90;;;;;;5019149;28;20294;-69
2023/06/05 12:18:49;;;;;;;4.45;2.63;;;16.20;99.90;;;;;;5019420;28;20025;-69
2023/06/05 12:21:26;;;;;;;3.00;1.80;;;16.30;99.90;;;;;;5017004;28;20413;-67
2023/06/05 12:24:04;;;;;;;5.45;2.00;;;16.30;99.90;;;;;;5014556;28;20053;-66
2023/06/05 12:26:47;;;;;;;4.43;2.00;;;16.50;99.90;;;;;;5018648;28;20030;-68
2023/06/05 12:29:13;;;;;;;2.92;1.35;;;16.40;99.90;;;;;;5021699;28;20443;-68
2023/06/05 12:31:39;;;;;;;5.13;2.70;;;16.30;99.90;;;;;;5019771;28;20037;-67
2023/06/05 12:34:06;;;;;;;6.70;1.98;;;16.30;99.90;;;;;;5015005;28;20354;-66
2023/06/05 12:36:39;;;;;;;3.47;2.10;;;16.30;99.90;;;;;;5027189;28;20072;-79
2023/06/05 12:39:08;;;;;;;4.07;2.38;;;16.30;99.90;;;;;;5018936;28;20030;-66
2023/06/05 12:41:34;;;;;;;3.72;2.25;;;16.30;99.90;;;;;;5014161;28;20074;-66
2023/06/05 12:44:04;;;;;;;3.60;2.43;;;16.20;99.90;;;;;;5014248;28;20022;-67
2023/06/05 12:46:33;;;;;;;4.93;2.53;;;16.30;99.90;;;;;;5015285;28;20021;-67
2023/06/05 12:49:00;;;;;;;1.75;0.95;;;16.30;99.90;;;;;;5015096;28;20445;-66
2023/06/05 12:51:26;;;;;;;3.50;1.92;;;16.40;99.90;;;;;;5015078;28;20320;-68
2023/06/05 12:53:56;;;;;;;6.97;2.65;;;16.40;99.90;;;;;;5014792;28;20442;-67
2023/06/05 12:56:26;;;;;;;2.90;1.45;;;16.50;99.90;;;;;;5014481;28;20050;-67
2023/06/05 12:58:57;;;;;;;4.22;2.25;;;16.50;99.90;;;;;;5015231;28;20030;-67